Algona, Washington
Current Conditions -  °F | °C
As of 1:53 AM on Thursday 27 Nov 2014 (Local Time) from KSEA Reporting Station
Overcast Overcast  
Wind Chill: 14°   Ceiling: 3800
Heat Index: 14°   Visibility: 10mi
Dew Point:   Wind: 20mph
Humidity: 59%   Direction: 200°SSW
Pressure: 29.87"   Gusts: 33mph
Location:  47.31°N, 122.266°W
Report Text: KSEA 270953Z 20017G29KT 10SM OVC038 14/06 A2987 RMK AO2 PK WND 20032/0859 RAB0858E24 SLP122 P0000 T01390061
Loading
Personal Weather Stations






























Interactive Weather Map New forecast layout! Learn more

10-Day Weather Forecast

Advertisements
Track Severe Weather on mobile